createdAt,value
2022-12-11T00:04:11.379Z,99976.78
2022-12-11T00:09:12.871Z,99988.03
2022-12-11T00:14:15.191Z,99982.88
2022-12-11T00:19:17.037Z,99977.72
2022-12-11T00:24:18.516Z,99972.34
2022-12-11T00:29:19.981Z,99975.25
2022-12-11T00:34:21.453Z,99978.47
2022-12-11T00:39:22.960Z,99981.22
2022-12-11T00:44:24.716Z,99981.16
2022-12-11T00:49:26.216Z,99992.69
2022-12-11T00:54:27.765Z,99994.78
2022-12-11T00:59:29.235Z,99998.97
2022-12-11T01:04:30.648Z,99997.69
2022-12-11T01:09:32.095Z,99993.31
2022-12-11T01:14:33.705Z,99993.47
2022-12-11T01:19:35.159Z,99990.41
2022-12-11T01:24:36.737Z,99991.41
2022-12-11T01:29:38.206Z,99983.44
2022-12-11T01:34:39.675Z,99975.72
2022-12-11T01:39:41.138Z,99980.69
2022-12-11T01:44:42.593Z,99973.34
2022-12-11T01:49:44.126Z,99986.22
2022-12-11T01:54:46.387Z,99976.88
2022-12-11T01:59:47.946Z,99976.13
2022-12-11T02:04:49.491Z,99977.56
2022-12-11T02:09:51.039Z,99981.47
2022-12-11T02:15:38.163Z,99988.66
2022-12-11T02:20:48.287Z,100000.09
2022-12-11T02:26:24.954Z,99994.75
2022-12-11T02:31:29.880Z,99999.34
2022-12-11T02:36:36.105Z,100002.56
2022-12-11T02:41:40.215Z,99988.56
2022-12-11T02:46:44.031Z,99982.44
2022-12-11T02:51:45.758Z,99983.28
2022-12-11T02:56:53.455Z,99978.47
2022-12-11T03:01:55.094Z,99978.31
2022-12-11T03:07:01.179Z,99983.44
2022-12-11T03:12:02.767Z,99978.75
2022-12-11T03:17:25.335Z,99971.59
2022-12-11T03:22:32.613Z,99957.00
2022-12-11T03:27:50.554Z,99965.41
2022-12-11T03:33:01.752Z,99967.75
2022-12-11T03:38:08.082Z,99965.53
2022-12-11T03:43:11.283Z,99964.63
2022-12-11T03:48:14.700Z,99973.72
2022-12-11T03:53:17.690Z,99972.63
2022-12-11T03:58:19.168Z,99972.41
2022-12-11T04:03:20.903Z,99972.38
2022-12-11T04:08:23.627Z,99962.25
2022-12-11T04:13:25.150Z,99962.81
2022-12-11T04:18:26.782Z,99949.16
2022-12-11T04:23:28.382Z,99951.28
2022-12-11T04:28:29.777Z,99953.47
2022-12-11T04:33:31.600Z,99952.63
2022-12-11T04:38:33.531Z,99954.06
2022-12-11T04:43:35.581Z,99962.63
2022-12-11T04:48:38.226Z,99962.16
2022-12-11T04:53:40.115Z,99964.78
2022-12-11T04:58:43.573Z,99954.84
2022-12-11T05:03:45.119Z,99952.53
2022-12-11T05:08:46.539Z,99960.63
2022-12-11T05:13:47.989Z,99949.16
2022-12-11T05:18:49.585Z,99942.31
2022-12-11T05:23:51.003Z,99937.97
2022-12-11T05:28:54.115Z,99936.28
2022-12-11T05:33:55.667Z,99930.22
2022-12-11T05:38:58.997Z,99942.88
2022-12-11T05:44:00.696Z,99928.63
2022-12-11T05:49:02.831Z,99921.16
2022-12-11T05:54:04.488Z,99924.56
2022-12-11T05:59:06.978Z,99928.19
2022-12-11T06:04:10.393Z,99931.78
2022-12-11T06:09:14.585Z,99928.63
2022-12-11T06:14:16.224Z,99913.09
2022-12-11T06:19:18.007Z,99917.88
2022-12-11T06:24:19.553Z,99916.94
2022-12-11T06:29:21.057Z,99919.50
2022-12-11T06:34:22.558Z,99917.09
2022-12-11T06:39:24.046Z,99916.69
2022-12-11T06:44:25.689Z,99920.28
2022-12-11T06:49:27.241Z,99921.53
2022-12-11T06:54:28.770Z,99920.13
2022-12-11T06:59:30.237Z,99922.84
2022-12-11T07:04:31.694Z,99925.25
2022-12-11T07:09:33.239Z,99924.09
2022-12-11T07:14:34.818Z,99931.16
2022-12-11T07:19:36.267Z,99927.13
2022-12-11T07:24:37.750Z,99920.44
2022-12-11T07:29:39.254Z,99909.03
2022-12-11T07:34:40.795Z,99912.81
2022-12-11T07:39:42.310Z,99914.34
2022-12-11T07:44:43.900Z,99927.63
2022-12-11T07:49:45.413Z,99927.81
2022-12-11T07:54:46.875Z,99931.19
2022-12-11T07:59:48.352Z,99926.94
2022-12-11T08:04:49.821Z,99936.09
2022-12-11T08:09:52.109Z,99927.97
2022-12-11T08:14:53.696Z,99930.91
2022-12-11T08:19:55.776Z,99934.81
2022-12-11T08:24:57.253Z,99933.84
2022-12-11T08:29:58.682Z,99931.53
2022-12-11T08:35:00.102Z,99929.50
2022-12-11T08:40:01.598Z,99930.91
2022-12-11T08:45:03.227Z,99933.03
2022-12-11T08:50:05.461Z,99927.31
2022-12-11T08:55:07.292Z,99923.28
2022-12-11T09:00:11.699Z,99925.44
2022-12-11T09:05:13.591Z,99923.88
2022-12-11T09:10:15.162Z,99930.88
2022-12-11T09:15:16.684Z,99924.16
2022-12-11T09:20:18.130Z,99924.75
2022-12-11T09:25:19.668Z,99914.28
2022-12-11T09:30:21.196Z,99922.75
2022-12-11T09:35:22.766Z,99927.59
2022-12-11T09:40:24.239Z,99933.16
2022-12-11T09:45:26.081Z,99929.78
2022-12-11T09:50:32.912Z,99918.53
2022-12-11T09:56:03.323Z,99905.81
2022-12-11T10:01:23.768Z,99906.00
2022-12-11T10:07:01.977Z,99899.94
2022-12-11T10:12:12.588Z,99895.59
2022-12-11T10:17:30.485Z,99890.16
2022-12-11T10:22:33.722Z,99890.22
2022-12-11T10:27:39.285Z,99890.22
2022-12-11T10:33:18.340Z,99882.56
2022-12-11T10:38:32.321Z,99880.31
2022-12-11T10:43:33.697Z,99870.44
2022-12-11T10:48:35.169Z,99858.72
2022-12-11T10:53:36.729Z,99856.69
2022-12-11T10:58:47.080Z,99862.44
2022-12-11T11:04:04.037Z,99852.59
2022-12-11T11:09:30.374Z,99856.13
2022-12-11T11:14:31.781Z,99853.78
2022-12-11T11:19:36.203Z,99853.41
2022-12-11T11:24:42.405Z,99850.81
2022-12-11T11:29:48.871Z,99843.72
2022-12-11T11:34:53.230Z,99832.94
2022-12-11T11:40:02.376Z,99829.56
2022-12-11T11:45:19.731Z,99829.91
2022-12-11T11:50:27.685Z,99821.78
2022-12-11T11:55:51.104Z,99821.16
2022-12-11T12:00:55.694Z,99813.59
2022-12-11T12:05:57.161Z,99820.03
2022-12-11T12:11:10.833Z,99813.03
2022-12-11T12:16:51.575Z,99819.44
2022-12-11T12:21:51.106Z,99805.47
2022-12-11T12:26:58.278Z,99794.34
2022-12-11T12:32:10.137Z,99796.34
2022-12-11T12:37:26.773Z,99798.22
2022-12-11T12:42:54.360Z,99792.34
2022-12-11T12:47:55.903Z,99795.06
2022-12-11T12:52:58.420Z,99786.19
2022-12-11T12:58:02.523Z,99791.50
2022-12-11T13:03:28.974Z,99785.25
2022-12-11T13:08:43.590Z,99790.78
2022-12-11T13:14:02.007Z,99790.97
2022-12-11T13:19:16.113Z,99786.75
2022-12-11T13:24:30.536Z,99790.72
2022-12-11T13:29:36.102Z,99789.72
2022-12-11T13:34:40.501Z,99798.47
2022-12-11T13:39:46.722Z,99803.28
2022-12-11T13:44:49.444Z,99802.84
2022-12-11T13:49:55.226Z,99793.00
2022-12-11T13:54:56.718Z,99789.91
2022-12-11T13:59:58.556Z,99795.03
2022-12-11T14:05:04.010Z,99794.22
2022-12-11T14:10:19.430Z,99794.09
2022-12-11T14:15:21.527Z,99797.50
2022-12-11T14:20:24.522Z,99805.88
2022-12-11T14:25:27.222Z,99805.88
2022-12-11T14:30:33.019Z,99807.34
2022-12-11T14:35:39.822Z,99818.03
2022-12-11T14:40:45.142Z,99821.72
2022-12-11T14:45:50.249Z,99829.38
2022-12-11T14:50:56.131Z,99826.78
2022-12-11T14:55:59.849Z,99834.84
2022-12-11T15:01:04.552Z,99835.47
2022-12-11T15:06:46.482Z,99830.31
2022-12-11T15:11:50.849Z,99832.13
2022-12-11T15:16:55.943Z,99834.38
2022-12-11T15:22:06.876Z,99830.75
2022-12-11T15:27:36.191Z,99826.75
2022-12-11T15:32:37.703Z,99844.16
2022-12-11T15:37:39.423Z,99847.31
2022-12-11T15:42:41.928Z,99846.84
2022-12-11T15:47:44.230Z,99845.50
2022-12-11T15:52:45.876Z,99854.97
2022-12-11T15:57:58.226Z,99852.50
2022-12-11T16:03:01.069Z,99858.34
2022-12-11T16:08:02.639Z,99854.50
2022-12-11T16:13:04.120Z,99860.19
2022-12-11T16:18:08.581Z,99863.00
2022-12-11T16:23:11.291Z,99853.09
2022-12-11T16:28:14.468Z,99854.16
2022-12-11T16:33:17.824Z,99850.13
2022-12-11T16:38:19.258Z,99848.84
2022-12-11T16:43:21.322Z,99847.53
2022-12-11T16:48:22.804Z,99846.78
2022-12-11T16:53:24.825Z,99854.41
2022-12-11T16:58:26.232Z,99853.88
2022-12-11T17:03:31.897Z,99848.38
2022-12-11T17:08:33.373Z,99840.66
2022-12-11T17:13:36.266Z,99838.03
2022-12-11T17:18:39.064Z,99834.13
2022-12-11T17:23:40.658Z,99827.72
2022-12-11T17:28:42.241Z,99824.44
2022-12-11T17:33:45.155Z,99824.66
2022-12-11T17:38:47.031Z,99834.22
2022-12-11T17:43:50.677Z,99844.13
2022-12-11T17:48:52.204Z,99845.41
2022-12-11T17:53:54.668Z,99841.13
2022-12-11T17:58:57.877Z,99845.69
2022-12-11T18:04:00.243Z,99843.72
2022-12-11T18:09:01.968Z,99842.81
2022-12-11T18:14:03.743Z,99844.84
2022-12-11T18:19:06.406Z,99847.28
2022-12-11T18:24:08.538Z,99844.59
2022-12-11T18:29:10.112Z,99841.69
2022-12-11T18:34:11.636Z,99845.88
2022-12-11T18:39:13.299Z,99834.47
2022-12-11T18:44:14.869Z,99836.34
2022-12-11T18:49:16.332Z,99844.56
2022-12-11T18:54:17.828Z,99843.84
2022-12-11T18:59:19.429Z,99842.53
2022-12-11T19:04:21.102Z,99841.03
2022-12-11T19:09:22.543Z,99839.16
2022-12-11T19:14:24.048Z,99839.75
2022-12-11T19:19:25.550Z,99844.94
2022-12-11T19:24:27.458Z,99841.84
2022-12-11T19:29:30.782Z,99847.56
2022-12-11T19:34:32.362Z,99843.38
2022-12-11T19:39:33.884Z,99834.13
2022-12-11T19:44:35.355Z,99839.91
2022-12-11T19:49:36.810Z,99842.69
2022-12-11T19:54:38.232Z,99834.78
2022-12-11T19:59:40.839Z,99830.88
2022-12-11T20:04:42.388Z,99836.75
2022-12-11T20:09:43.918Z,99835.81
2022-12-11T20:14:45.392Z,99835.34
2022-12-11T20:19:46.816Z,99838.88
2022-12-11T20:24:48.334Z,99838.22
2022-12-11T20:29:49.782Z,99831.91
2022-12-11T20:34:55.563Z,99839.81
2022-12-11T20:39:57.023Z,99832.09
2022-12-11T20:44:58.543Z,99842.63
2022-12-11T20:50:00.222Z,99836.81
2022-12-11T20:55:01.664Z,99835.53
2022-12-11T21:00:05.454Z,99839.34
2022-12-11T21:05:07.228Z,99837.69
2022-12-11T21:10:09.302Z,99837.41
2022-12-11T21:15:11.317Z,99838.13
2022-12-11T21:20:13.083Z,99834.13
2022-12-11T21:25:14.779Z,99838.06
2022-12-11T21:30:16.641Z,99842.03
2022-12-11T21:35:18.223Z,99843.00
2022-12-11T21:40:19.766Z,99842.41
2022-12-11T21:50:43.206Z,99842.88
2022-12-11T21:55:44.728Z,99846.44
2022-12-11T22:00:46.331Z,99841.47
2022-12-11T22:05:47.827Z,99843.69
2022-12-11T22:10:49.525Z,99843.25
2022-12-11T22:15:50.953Z,99838.84
2022-12-11T22:20:54.153Z,99843.91
2022-12-11T22:25:55.975Z,99844.72
2022-12-11T22:30:57.590Z,99851.81
2022-12-11T22:36:00.511Z,99856.41
2022-12-11T22:41:08.829Z,99863.41
2022-12-11T22:46:18.373Z,99860.44
2022-12-11T22:51:21.123Z,99860.59
2022-12-11T22:56:22.663Z,99869.44
2022-12-11T23:01:26.145Z,99870.03
2022-12-11T23:06:27.612Z,99864.78
2022-12-11T23:11:35.359Z,99869.78
2022-12-11T23:16:36.914Z,99869.91
2022-12-11T23:21:38.706Z,99873.50
2022-12-11T23:26:40.985Z,99874.50
2022-12-11T23:31:42.460Z,99872.72
2022-12-11T23:36:44.113Z,99873.00
2022-12-11T23:41:45.717Z,99878.06
2022-12-11T23:46:47.164Z,99887.44
2022-12-11T23:51:48.609Z,99882.53
2022-12-11T23:56:50.222Z,99878.38
